createdAt,value
2018-12-10T00:01:21.515Z,100747.12
2018-12-10T00:03:49.020Z,100755.69
2018-12-10T00:06:16.461Z,100754.95
2018-12-10T00:08:43.921Z,100761.28
2018-12-10T00:11:11.385Z,100761.34
2018-12-10T00:13:38.847Z,100756.61
2018-12-10T00:16:06.292Z,100757.78
2018-12-10T00:18:33.717Z,100763.48
2018-12-10T00:21:01.223Z,100766.92
2018-12-10T00:23:28.687Z,100774.66
2018-12-10T00:25:56.109Z,100779.31
2018-12-10T00:28:23.587Z,100788.20
2018-12-10T00:30:51.056Z,100783.09
2018-12-10T00:33:18.497Z,100777.49
2018-12-10T00:35:45.923Z,100791.16
2018-12-10T00:38:13.431Z,100796.40
2018-12-10T00:40:40.837Z,100798.41
2018-12-10T00:43:08.279Z,100802.23
2018-12-10T00:45:35.800Z,100800.84
2018-12-10T00:48:03.246Z,100805.95
2018-12-10T00:50:31.023Z,100806.65
2018-12-10T00:52:58.567Z,100805.83
2018-12-10T00:55:26.024Z,100804.86
2018-12-10T00:57:53.460Z,100812.84
2018-12-10T01:00:20.927Z,100809.98
2018-12-10T01:02:48.338Z,100824.49
2018-12-10T01:05:15.781Z,100825.69
2018-12-10T01:07:43.320Z,100827.33
2018-12-10T01:10:10.751Z,100824.25
2018-12-10T01:12:38.170Z,100836.31
2018-12-10T01:15:05.679Z,100832.16
2018-12-10T01:17:33.089Z,100843.79
2018-12-10T01:20:00.610Z,100838.57
2018-12-10T01:22:28.137Z,100844.38
2018-12-10T01:24:55.574Z,100851.26
2018-12-10T01:27:23.070Z,100849.38
2018-12-10T01:29:50.528Z,100860.56
2018-12-10T01:32:17.988Z,100860.56
2018-12-10T01:34:45.483Z,100868.75
2018-12-10T01:37:12.981Z,100868.63
2018-12-10T01:39:40.463Z,100871.09
2018-12-10T01:42:07.909Z,100873.12
2018-12-10T01:44:35.357Z,100868.85
2018-12-10T01:47:03.172Z,100886.31
2018-12-10T01:49:30.692Z,100890.34
2018-12-10T01:51:58.163Z,100882.85
2018-12-10T01:54:25.607Z,100893.02
2018-12-10T01:56:53.049Z,100894.11
2018-12-10T01:59:20.605Z,100889.10
2018-12-10T02:01:48.065Z,100897.77
2018-12-10T02:04:15.529Z,100895.16
2018-12-10T02:06:43.007Z,100906.44
2018-12-10T02:09:10.434Z,100903.95
2018-12-10T02:11:37.864Z,100910.58
2018-12-10T02:14:05.274Z,100912.48
2018-12-10T02:16:32.702Z,100916.98
2018-12-10T02:19:00.183Z,100918.76
2018-12-10T02:21:27.739Z,100917.67
2018-12-10T02:23:55.211Z,100922.77
2018-12-10T02:26:22.613Z,100935.73
2018-12-10T02:28:55.583Z,100931.83
2018-12-10T02:31:23.076Z,100946.00
2018-12-10T02:33:50.552Z,100940.08
2018-12-10T02:36:18.021Z,100943.55
2018-12-10T02:38:45.478Z,100950.56
2018-12-10T02:41:12.893Z,100952.95
2018-12-10T02:43:40.336Z,100943.33
2018-12-10T02:46:07.831Z,100941.89
2018-12-10T02:48:35.294Z,100943.77
2018-12-10T02:51:02.756Z,100943.05
2018-12-10T02:53:30.192Z,100951.96
2018-12-10T02:55:57.677Z,100946.70
2018-12-10T02:58:25.085Z,100953.71
2018-12-10T03:00:53.264Z,100956.55
2018-12-10T03:03:20.683Z,100946.67
2018-12-10T03:05:48.135Z,100962.82
2018-12-10T03:08:15.871Z,100965.87
2018-12-10T03:10:43.315Z,100957.91
2018-12-10T03:13:10.774Z,100966.22
2018-12-10T03:15:38.249Z,100966.43
2018-12-10T03:18:05.701Z,100967.25
2018-12-10T03:20:33.166Z,100958.47
2018-12-10T03:23:00.588Z,100954.29
2018-12-10T03:25:28.063Z,100968.38
2018-12-10T03:27:55.489Z,100967.91
2018-12-10T03:30:23.074Z,100966.95
2018-12-10T03:32:50.542Z,100967.29
2018-12-10T03:35:17.959Z,100962.77
2018-12-10T03:37:45.461Z,100975.59
2018-12-10T03:40:12.921Z,100981.57
2018-12-10T03:42:40.479Z,100988.02
2018-12-10T03:45:08.129Z,100988.16
2018-12-10T03:47:35.595Z,100985.45
2018-12-10T03:50:04.478Z,100991.12
2018-12-10T03:52:31.929Z,100997.81
2018-12-10T03:54:59.348Z,100998.69
2018-12-10T03:57:26.776Z,100997.69
2018-12-10T03:59:54.412Z,101006.48
2018-12-10T04:02:21.878Z,101010.14
2018-12-10T04:04:49.335Z,101009.05
2018-12-10T04:07:16.784Z,101015.78
2018-12-10T04:09:44.207Z,101019.44
2018-12-10T04:12:11.797Z,101016.47
2018-12-10T04:14:39.242Z,101019.91
2018-12-10T04:17:06.679Z,101024.44
2018-12-10T04:19:34.091Z,101015.66
2018-12-10T04:22:01.539Z,101021.23
2018-12-10T04:24:29.011Z,101022.54
2018-12-10T04:26:56.510Z,101013.61
2018-12-10T04:29:24.108Z,101024.87
2018-12-10T04:31:51.537Z,101023.73
2018-12-10T04:34:18.961Z,101032.03
2018-12-10T04:36:46.473Z,101036.07
2018-12-10T04:39:13.896Z,101031.20
2018-12-10T04:41:41.335Z,101032.45
2018-12-10T04:44:08.829Z,101041.92
2018-12-10T04:46:36.256Z,101044.33
2018-12-10T04:49:03.760Z,101048.59
2018-12-10T04:51:31.229Z,101050.73
2018-12-10T04:53:58.884Z,101053.52
2018-12-10T04:56:26.444Z,101058.41
2018-12-10T04:58:53.899Z,101059.55
2018-12-10T05:01:21.335Z,101067.14
2018-12-10T05:03:48.806Z,101075.24
2018-12-10T05:06:16.250Z,101077.22
2018-12-10T05:08:44.035Z,101078.27
2018-12-10T05:11:11.461Z,101074.48
2018-12-10T05:13:38.933Z,101105.55
2018-12-10T05:16:06.392Z,101115.95
2018-12-10T05:18:33.864Z,101119.75
2018-12-10T05:21:01.274Z,101120.66
2018-12-10T05:23:28.717Z,101121.69
2018-12-10T05:25:56.141Z,101116.69
2018-12-10T05:28:23.546Z,101117.30
2018-12-10T05:30:51.049Z,101121.96
2018-12-10T05:33:18.470Z,101113.36
2018-12-10T05:35:45.937Z,101115.78
2018-12-10T05:38:13.345Z,101109.23
2018-12-10T05:40:40.843Z,101114.06
2018-12-10T05:43:08.341Z,101115.22
2018-12-10T05:45:35.779Z,101121.48
2018-12-10T05:48:03.247Z,101124.53
2018-12-10T05:50:30.698Z,101125.09
2018-12-10T05:52:58.117Z,101129.83
2018-12-10T05:55:25.601Z,101126.75
2018-12-10T05:57:53.063Z,101127.22
2018-12-10T06:00:20.505Z,101131.97
2018-12-10T06:02:47.982Z,101130.78
2018-12-10T06:05:15.420Z,101131.07
2018-12-10T06:07:42.880Z,101135.84
2018-12-10T06:10:10.319Z,101141.51
2018-12-10T06:12:37.743Z,101139.84
2018-12-10T06:15:05.238Z,101134.83
2018-12-10T06:17:32.724Z,101138.95
2018-12-10T06:20:00.149Z,101147.84
2018-12-10T06:22:27.630Z,101145.43
2018-12-10T06:24:55.095Z,101152.58
2018-12-10T06:27:22.655Z,101153.73
2018-12-10T06:29:50.091Z,101154.42
2018-12-10T06:32:17.535Z,101156.51
2018-12-10T06:34:45.232Z,101160.34
2018-12-10T06:37:12.676Z,101160.49
2018-12-10T06:39:40.113Z,101151.83
2018-12-10T06:42:08.367Z,101160.61
2018-12-10T06:44:35.977Z,101156.90
2018-12-10T06:47:03.506Z,101165.17
2018-12-10T06:49:30.984Z,101164.10
2018-12-10T06:51:58.501Z,101164.55
2018-12-10T06:54:26.012Z,101175.19
2018-12-10T06:56:53.453Z,101183.25
2018-12-10T06:59:20.875Z,101184.48
2018-12-10T07:01:48.365Z,101189.78
2018-12-10T07:04:15.842Z,101191.68
2018-12-10T07:06:43.296Z,101192.23
2018-12-10T07:09:10.727Z,101191.52
2018-12-10T07:11:38.162Z,101190.89
2018-12-10T07:14:05.585Z,101203.08
2018-12-10T07:16:33.137Z,101205.33
2018-12-10T07:19:00.680Z,101201.13
2018-12-10T07:21:28.120Z,101206.66
2018-12-10T07:23:55.602Z,101210.94
2018-12-10T07:26:23.037Z,101214.02
2018-12-10T07:28:50.503Z,101208.25
2018-12-10T07:31:17.927Z,101210.94
2018-12-10T07:33:45.339Z,101207.77
2018-12-10T07:36:13.723Z,101217.54
2018-12-10T07:38:41.155Z,101219.12
2018-12-10T07:41:08.626Z,101227.27
2018-12-10T07:43:36.034Z,101232.25
2018-12-10T07:46:03.546Z,101233.31
2018-12-10T07:48:30.987Z,101232.16
2018-12-10T07:50:58.457Z,101236.16
2018-12-10T07:53:25.998Z,101242.75
2018-12-10T07:55:53.406Z,101248.02
2018-12-10T07:58:20.833Z,101245.94
2018-12-10T08:00:48.268Z,101251.23
2018-12-10T08:03:15.695Z,101241.86
2018-12-10T08:05:43.174Z,101249.48
2018-12-10T08:08:10.659Z,101247.30
2018-12-10T08:10:38.084Z,101248.94
2018-12-10T08:13:05.562Z,101256.80
2018-12-10T08:15:33.016Z,101264.34
2018-12-10T08:18:00.461Z,101278.52
2018-12-10T08:20:27.893Z,101270.41
2018-12-10T08:22:55.365Z,101282.52
2018-12-10T08:25:23.304Z,101281.13
2018-12-10T08:27:50.968Z,101290.27
2018-12-10T08:30:18.431Z,101284.22
2018-12-10T08:32:45.913Z,101286.98
2018-12-10T08:35:13.392Z,101289.39
2018-12-10T08:37:40.843Z,101292.92
2018-12-10T08:40:08.404Z,101288.81
2018-12-10T08:42:35.805Z,101282.22
2018-12-10T08:45:04.019Z,101287.70
2018-12-10T08:47:31.496Z,101284.14
2018-12-10T08:49:58.943Z,101284.00
2018-12-10T08:52:26.405Z,101283.68
2018-12-10T08:54:53.971Z,101282.16
2018-12-10T08:57:21.400Z,101279.41
2018-12-10T08:59:48.861Z,101287.86
2018-12-10T09:02:16.295Z,101288.18
2018-12-10T09:04:43.779Z,101294.91
2018-12-10T09:07:11.333Z,101292.03
2018-12-10T09:09:38.812Z,101292.98
2018-12-10T09:12:06.366Z,101294.21
2018-12-10T09:14:33.803Z,101295.11
2018-12-10T09:17:01.219Z,101287.28
2018-12-10T09:19:28.727Z,101291.83
2018-12-10T09:21:56.161Z,101307.30
2018-12-10T09:24:23.654Z,101314.73
2018-12-10T09:26:51.314Z,101309.06
2018-12-10T09:29:18.760Z,101310.69
2018-12-10T09:31:46.226Z,101317.17
2018-12-10T09:34:13.675Z,101312.37
2018-12-10T09:36:41.243Z,101314.98
2018-12-10T09:39:08.689Z,101312.64
2018-12-10T09:41:36.164Z,101311.84
2018-12-10T09:44:03.584Z,101323.72
2018-12-10T09:46:31.052Z,101321.08
2018-12-10T09:48:58.535Z,101332.02
2018-12-10T09:51:25.983Z,101327.48
2018-12-10T09:53:53.418Z,101327.29
2018-12-10T09:56:20.827Z,101323.52
2018-12-10T09:58:48.349Z,101318.69
2018-12-10T10:01:15.812Z,101317.22
2018-12-10T10:03:44.048Z,101312.87
2018-12-10T10:06:11.513Z,101321.00
2018-12-10T10:08:39.009Z,101323.05
2018-12-10T10:11:06.431Z,101313.27
2018-12-10T10:13:33.927Z,101320.05
2018-12-10T10:16:01.358Z,101315.69
2018-12-10T10:18:28.781Z,101317.12
2018-12-10T10:22:25.960Z,101311.59
2018-12-10T10:24:53.464Z,101310.42
2018-12-10T10:27:20.877Z,101311.16
2018-12-10T10:29:48.289Z,101318.09
2018-12-10T10:32:15.827Z,101320.75
2018-12-10T10:34:43.264Z,101326.20
2018-12-10T10:37:10.693Z,101322.49
2018-12-10T10:39:38.140Z,101321.31
2018-12-10T10:42:05.549Z,101332.13
2018-12-10T10:44:33.003Z,101330.98
2018-12-10T10:47:00.409Z,101332.42
2018-12-10T10:49:27.871Z,101332.63
2018-12-10T10:51:55.366Z,101329.27
2018-12-10T10:54:22.794Z,101326.18
2018-12-10T10:56:50.215Z,101326.18
2018-12-10T10:59:17.626Z,101318.73
2018-12-10T11:01:50.769Z,101316.28
2018-12-10T11:04:18.188Z,101311.27
2018-12-10T11:06:45.624Z,101311.27
2018-12-10T11:09:15.526Z,101315.77
2018-12-10T11:11:42.533Z,101313.36
2018-12-10T11:14:09.960Z,101310.09
2018-12-10T11:16:37.386Z,101310.14
2018-12-10T11:19:04.919Z,101314.08
2018-12-10T11:21:32.403Z,101320.31
2018-12-10T11:23:59.880Z,101318.09
2018-12-10T11:26:27.315Z,101311.81
2018-12-10T11:28:54.734Z,101306.19
2018-12-10T11:31:22.174Z,101311.69
2018-12-10T11:33:49.633Z,101302.21
2018-12-10T11:36:17.165Z,101306.48
2018-12-10T11:38:44.573Z,101302.30
2018-12-10T11:41:12.022Z,101298.37
2018-12-10T11:43:39.532Z,101298.50
2018-12-10T11:46:06.993Z,101308.37
2018-12-10T11:48:34.449Z,101303.88
2018-12-10T11:51:01.991Z,101300.78
2018-12-10T11:53:29.595Z,101294.54
2018-12-10T11:55:57.033Z,101303.08
2018-12-10T11:58:24.444Z,101295.86
2018-12-10T12:00:51.915Z,101296.31
2018-12-10T12:03:19.421Z,101305.83
2018-12-10T12:05:47.109Z,101298.45
2018-12-10T12:08:14.745Z,101292.47
2018-12-10T12:10:42.195Z,101289.73
2018-12-10T12:13:09.641Z,101295.98
2018-12-10T12:15:37.073Z,101298.59
2018-12-10T12:18:04.559Z,101297.67
2018-12-10T12:20:32.113Z,101303.88
2018-12-10T12:22:59.538Z,101305.92
2018-12-10T12:25:26.952Z,101295.80
2018-12-10T12:27:54.403Z,101295.83
2018-12-10T12:30:21.840Z,101303.11
2018-12-10T12:32:49.270Z,101297.87
2018-12-10T12:35:16.761Z,101303.11
2018-12-10T12:37:44.305Z,101307.00
2018-12-10T12:40:11.816Z,101291.29
2018-12-10T12:42:39.332Z,101298.06
2018-12-10T12:45:06.799Z,101297.67
2018-12-10T12:47:34.243Z,101289.69
2018-12-10T12:50:01.676Z,101282.84
2018-12-10T12:52:30.045Z,101279.74
2018-12-10T12:54:57.448Z,101283.72
2018-12-10T12:57:24.882Z,101283.50
2018-12-10T12:59:52.352Z,101277.91
2018-12-10T13:02:19.800Z,101281.42
2018-12-10T13:04:47.288Z,101275.73
2018-12-10T13:07:14.720Z,101274.45
2018-12-10T13:09:42.148Z,101280.78
2018-12-10T13:12:09.652Z,101284.45
2018-12-10T13:14:37.107Z,101276.22
2018-12-10T13:17:04.643Z,101280.24
2018-12-10T13:19:32.080Z,101270.14
2018-12-10T13:21:59.503Z,101270.65
2018-12-10T13:24:26.925Z,101273.42
2018-12-10T13:26:54.370Z,101273.66
2018-12-10T13:29:21.782Z,101271.17
2018-12-10T13:31:49.228Z,101279.97
2018-12-10T13:34:16.653Z,101273.05
2018-12-10T13:36:44.090Z,101276.22
2018-12-10T13:39:11.668Z,101278.80
2018-12-10T13:41:39.120Z,101277.37
2018-12-10T13:44:06.535Z,101284.84
2018-12-10T13:46:34.022Z,101275.77
2018-12-10T13:49:01.495Z,101272.58
2018-12-10T13:51:28.952Z,101271.75
2018-12-10T13:53:56.368Z,101282.61
2018-12-10T13:56:23.844Z,101292.03
2018-12-10T13:58:51.248Z,101278.58
2018-12-10T14:01:18.793Z,101293.53
2018-12-10T14:03:46.669Z,101286.41
2018-12-10T14:06:14.098Z,101283.05
2018-12-10T14:08:41.538Z,101287.64
2018-12-10T14:11:08.949Z,101289.39
2018-12-10T14:13:36.400Z,101287.59
2018-12-10T14:16:03.842Z,101295.41
2018-12-10T14:18:31.368Z,101293.01
2018-12-10T14:20:58.855Z,101296.31
2018-12-10T14:23:26.436Z,101298.58
2018-12-10T14:25:53.843Z,101302.73
2018-12-10T14:28:21.266Z,101306.44
2018-12-10T14:30:48.840Z,101306.44
2018-12-10T14:33:16.328Z,101321.06
2018-12-10T14:35:43.901Z,101328.47
2018-12-10T14:38:11.340Z,101333.39
2018-12-10T14:40:38.798Z,101320.80
2018-12-10T14:43:06.265Z,101325.08
2018-12-10T14:45:33.683Z,101328.59
2018-12-10T14:48:01.135Z,101327.02
2018-12-10T14:50:28.533Z,101325.98
2018-12-10T14:52:55.961Z,101327.16
2018-12-10T14:55:23.548Z,101333.02
2018-12-10T14:57:50.966Z,101330.81
2018-12-10T15:00:18.390Z,101324.80
2018-12-10T15:02:45.809Z,101328.72
2018-12-10T15:05:13.380Z,101330.78
2018-12-10T15:07:40.812Z,101334.89
2018-12-10T15:10:08.297Z,101332.69
2018-12-10T15:12:35.737Z,101329.44
2018-12-10T15:15:03.203Z,101331.89
2018-12-10T15:17:30.632Z,101337.47
2018-12-10T15:19:58.055Z,101337.59
2018-12-10T15:22:25.492Z,101346.25
2018-12-10T15:24:52.908Z,101356.34
2018-12-10T15:27:20.309Z,101351.47
2018-12-10T15:29:47.904Z,101350.53
2018-12-10T15:32:15.469Z,101349.33
2018-12-10T15:34:42.896Z,101355.06
2018-12-10T15:37:10.319Z,101359.06
2018-12-10T15:39:37.762Z,101365.51
2018-12-10T15:42:05.181Z,101370.25
2018-12-10T15:44:32.614Z,101370.45
2018-12-10T15:47:00.037Z,101373.89
2018-12-10T15:49:27.469Z,101380.78
2018-12-10T15:51:54.974Z,101380.42
2018-12-10T15:54:22.501Z,101382.11
2018-12-10T15:56:49.981Z,101381.75
2018-12-10T15:59:17.424Z,101372.25
2018-12-10T16:01:44.892Z,101367.39
2018-12-10T16:04:12.325Z,101380.97
2018-12-10T16:06:39.748Z,101388.16
2018-12-10T16:09:07.258Z,101391.25
2018-12-10T16:11:34.664Z,101405.69
2018-12-10T16:14:02.162Z,101395.33
2018-12-10T16:16:29.655Z,101403.09
2018-12-10T16:18:57.077Z,101403.09
2018-12-10T16:21:24.484Z,101399.64
2018-12-10T16:23:51.997Z,101398.61
2018-12-10T16:26:19.477Z,101394.45
2018-12-10T16:28:46.911Z,101393.33
2018-12-10T16:31:14.384Z,101391.91
2018-12-10T16:33:41.821Z,101395.47
2018-12-10T16:36:09.685Z,101396.85
2018-12-10T16:38:37.123Z,101400.52
2018-12-10T16:41:04.608Z,101401.44
2018-12-10T16:43:32.076Z,101400.90
2018-12-10T16:45:59.488Z,101410.98
2018-12-10T16:48:26.914Z,101399.67
2018-12-10T16:50:54.385Z,101407.31
2018-12-10T16:53:21.887Z,101412.81
2018-12-10T16:55:49.349Z,101408.15
2018-12-10T16:58:16.821Z,101408.38
2018-12-10T17:00:44.245Z,101410.70
2018-12-10T17:03:11.698Z,101407.50
2018-12-10T17:05:39.125Z,101412.06
2018-12-10T17:08:06.551Z,101413.29
2018-12-10T17:10:33.989Z,101410.20
2018-12-10T17:13:01.456Z,101411.96
2018-12-10T17:15:28.901Z,101409.52
2018-12-10T17:17:56.311Z,101412.30
2018-12-10T17:20:23.747Z,101412.58
2018-12-10T17:22:51.168Z,101418.56
2018-12-10T17:25:18.637Z,101416.11
2018-12-10T17:27:46.057Z,101418.89
2018-12-10T17:30:13.473Z,101422.98
2018-12-10T17:32:40.885Z,101419.45
2018-12-10T17:35:08.357Z,101415.70
2018-12-10T17:37:35.769Z,101419.34
2018-12-10T17:40:03.619Z,101414.70
2018-12-10T17:42:31.129Z,101431.59
2018-12-10T17:44:58.582Z,101428.86
2018-12-10T17:47:25.999Z,101438.20
2018-12-10T17:49:53.725Z,101439.28
2018-12-10T17:52:21.133Z,101443.13
2018-12-10T17:54:48.920Z,101430.14
2018-12-10T17:57:16.495Z,101432.31
2018-12-10T17:59:43.939Z,101436.12
2018-12-10T18:02:11.361Z,101436.23
2018-12-10T18:04:38.805Z,101444.31
2018-12-10T18:07:06.206Z,101437.78
2018-12-10T18:09:33.696Z,101441.64
2018-12-10T18:12:01.200Z,101444.53
2018-12-10T18:14:28.674Z,101437.36
2018-12-10T18:16:56.140Z,101439.14
2018-12-10T18:19:23.556Z,101449.31
2018-12-10T18:21:51.076Z,101445.12
2018-12-10T18:24:18.505Z,101445.86
2018-12-10T18:26:45.968Z,101439.05
2018-12-10T18:29:13.388Z,101438.23
2018-12-10T18:31:40.822Z,101434.04
2018-12-10T18:34:08.252Z,101430.53
2018-12-10T18:36:35.703Z,101428.84
2018-12-10T18:39:03.277Z,101431.64
2018-12-10T18:41:30.692Z,101437.25
2018-12-10T18:43:58.198Z,101440.52
2018-12-10T18:46:25.616Z,101441.91
2018-12-10T18:48:53.043Z,101441.83
2018-12-10T18:51:20.475Z,101426.05
2018-12-10T18:53:48.007Z,101427.00
2018-12-10T18:56:15.553Z,101430.08
2018-12-10T18:58:43.027Z,101431.39
2018-12-10T19:01:10.482Z,101419.83
2018-12-10T19:03:37.950Z,101436.33
2018-12-10T19:06:05.388Z,101429.25
2018-12-10T19:08:32.798Z,101422.05
2018-12-10T19:11:00.223Z,101427.09
2018-12-10T19:13:27.648Z,101437.45
2018-12-10T19:15:55.434Z,101455.70
2018-12-10T19:18:22.844Z,101460.45
2018-12-10T19:20:50.348Z,101445.14
2018-12-10T19:23:17.757Z,101453.45
2018-12-10T19:25:45.227Z,101451.14
2018-12-10T19:28:12.715Z,101448.61
2018-12-10T19:30:40.174Z,101451.61
2018-12-10T19:33:07.616Z,101456.44
2018-12-10T19:35:35.040Z,101457.02
2018-12-10T19:38:02.461Z,101452.28
2018-12-10T19:40:29.881Z,101448.55
2018-12-10T19:42:57.345Z,101447.43
2018-12-10T19:45:24.822Z,101450.05
2018-12-10T19:47:52.278Z,101450.70
2018-12-10T19:50:19.801Z,101451.61
2018-12-10T19:52:47.291Z,101452.19
2018-12-10T19:55:14.726Z,101456.83
2018-12-10T19:57:42.259Z,101460.30
2018-12-10T20:00:09.743Z,101452.84
2018-12-10T20:02:37.334Z,101448.92
2018-12-10T20:05:06.065Z,101452.47
2018-12-10T20:07:33.493Z,101448.91
2018-12-10T20:10:00.917Z,101445.36
2018-12-10T20:12:28.379Z,101442.47
2018-12-10T20:14:55.831Z,101443.87
2018-12-10T20:17:23.271Z,101454.50
2018-12-10T20:19:50.678Z,101462.98
2018-12-10T20:22:18.117Z,101467.17
2018-12-10T20:24:45.549Z,101472.55
2018-12-10T20:27:12.987Z,101477.59
2018-12-10T20:29:40.399Z,101474.06
2018-12-10T20:32:07.844Z,101487.37
2018-12-10T20:34:35.390Z,101488.88
2018-12-10T20:37:02.849Z,101471.81
2018-12-10T20:39:30.289Z,101471.44
2018-12-10T20:41:57.727Z,101466.16
2018-12-10T20:44:25.150Z,101465.59
2018-12-10T20:46:52.629Z,101468.31
2018-12-10T20:49:20.113Z,101464.84
2018-12-10T20:51:47.547Z,101472.77
2018-12-10T20:54:15.026Z,101473.25
2018-12-10T20:56:42.495Z,101475.56
2018-12-10T20:59:09.952Z,101471.77
2018-12-10T21:01:37.415Z,101468.50
2018-12-10T21:04:04.967Z,101475.28
2018-12-10T21:06:34.766Z,101466.63
2018-12-10T21:09:02.500Z,101468.50
2018-12-10T21:11:29.907Z,101473.43
2018-12-10T21:13:57.337Z,101470.27
2018-12-10T21:16:24.802Z,101475.02
2018-12-10T21:18:52.274Z,101478.94
2018-12-10T21:21:19.838Z,101480.42
2018-12-10T21:23:47.452Z,101481.91
2018-12-10T21:26:14.951Z,101475.39
2018-12-10T21:28:42.401Z,101474.16
2018-12-10T21:31:09.823Z,101479.77
2018-12-10T21:33:37.265Z,101474.16
2018-12-10T21:36:04.678Z,101480.61
2018-12-10T21:38:32.136Z,101481.98
2018-12-10T21:40:59.560Z,101484.70
2018-12-10T21:43:26.993Z,101484.34
2018-12-10T21:45:54.420Z,101489.16
2018-12-10T21:48:21.837Z,101502.13
2018-12-10T21:50:49.270Z,101492.34
2018-12-10T21:53:16.757Z,101497.27
2018-12-10T21:55:44.191Z,101495.24
2018-12-10T21:58:11.622Z,101499.98
2018-12-10T22:00:39.126Z,101498.97
2018-12-10T22:03:06.591Z,101499.52
2018-12-10T22:05:34.005Z,101498.39
2018-12-10T22:08:01.501Z,101496.25
2018-12-10T22:10:28.947Z,101494.76
2018-12-10T22:12:56.360Z,101490.01
2018-12-10T22:15:23.787Z,101496.34
2018-12-10T22:17:51.238Z,101491.89
2018-12-10T22:20:18.665Z,101487.11
2018-12-10T22:22:46.065Z,101495.23
2018-12-10T22:25:13.621Z,101491.14
2018-12-10T22:27:41.073Z,101490.85
2018-12-10T22:30:08.619Z,101501.18
2018-12-10T22:32:36.186Z,101495.42
2018-12-10T22:35:03.931Z,101494.11
2018-12-10T22:37:31.348Z,101493.93
2018-12-10T22:39:58.789Z,101499.98
2018-12-10T22:42:26.207Z,101504.19
2018-12-10T22:44:53.677Z,101499.61
2018-12-10T22:47:21.118Z,101499.43
2018-12-10T22:49:48.587Z,101499.43
2018-12-10T22:52:16.019Z,101500.09
2018-12-10T22:54:43.495Z,101500.16
2018-12-10T22:57:10.954Z,101497.02
2018-12-10T22:59:38.385Z,101492.81
2018-12-10T23:02:05.804Z,101488.61
2018-12-10T23:04:33.273Z,101491.80
2018-12-10T23:07:00.698Z,101494.12
2018-12-10T23:09:28.188Z,101493.47
2018-12-10T23:11:55.600Z,101499.70
2018-12-10T23:14:23.062Z,101500.35
2018-12-10T23:16:50.472Z,101508.28
2018-12-10T23:19:17.896Z,101501.30
2018-12-10T23:21:45.333Z,101501.58
2018-12-10T23:24:12.783Z,101502.59
2018-12-10T23:26:40.206Z,101502.48
2018-12-10T23:29:07.641Z,101502.67
2018-12-10T23:31:35.136Z,101503.72
2018-12-10T23:34:02.549Z,101510.42
2018-12-10T23:36:30.082Z,101523.47
2018-12-10T23:38:57.571Z,101528.32
2018-12-10T23:41:25.005Z,101533.43
2018-12-10T23:43:52.444Z,101535.39
2018-12-10T23:46:19.922Z,101546.41
2018-12-10T23:48:47.348Z,101540.63
2018-12-10T23:51:14.768Z,101548.17
2018-12-10T23:53:42.189Z,101546.49
2018-12-10T23:56:09.676Z,101532.02
2018-12-10T23:58:37.090Z,101539.20
